sensor_id;sensor_type;location;lat;lon;timestamp;pressure;altitude;pressure_sealevel;temperature;humidity
66430;BME280;53242;51.694;10.006;2023-06-04T00:02:02;100019.28;;;13.33;44.58
66430;BME280;53242;51.694;10.006;2023-06-04T00:04:25;100016.47;;;13.41;44.88
66430;BME280;53242;51.694;10.006;2023-06-04T00:06:47;100018.44;;;13.26;45.39
66430;BME280;53242;51.694;10.006;2023-06-04T00:09:10;100018.91;;;13.43;45.42
66430;BME280;53242;51.694;10.006;2023-06-04T00:11:32;100016.78;;;13.18;45.76
66430;BME280;53242;51.694;10.006;2023-06-04T00:13:56;100017.00;;;13.30;45.57
66430;BME280;53242;51.694;10.006;2023-06-04T00:16:18;100017.00;;;13.30;45.33
66430;BME280;53242;51.694;10.006;2023-06-04T00:18:40;100013.75;;;13.28;45.57
66430;BME280;53242;51.694;10.006;2023-06-04T00:21:03;100013.72;;;13.21;45.79
66430;BME280;53242;51.694;10.006;2023-06-04T00:23:25;100007.91;;;12.91;46.67
66430;BME280;53242;51.694;10.006;2023-06-04T00:25:48;100008.13;;;12.96;46.03
66430;BME280;53242;51.694;10.006;2023-06-04T00:28:10;99998.06;;;12.78;46.32
66430;BME280;53242;51.694;10.006;2023-06-04T00:30:32;100006.22;;;12.83;46.21
66430;BME280;53242;51.694;10.006;2023-06-04T00:32:55;100007.44;;;12.80;46.28
66430;BME280;53242;51.694;10.006;2023-06-04T00:35:17;100014.41;;;12.88;46.85
66430;BME280;53242;51.694;10.006;2023-06-04T00:37:40;100012.22;;;12.98;45.90
66430;BME280;53242;51.694;10.006;2023-06-04T00:40:02;100007.16;;;12.69;47.19
66430;BME280;53242;51.694;10.006;2023-06-04T00:42:24;100001.72;;;12.77;46.88
66430;BME280;53242;51.694;10.006;2023-06-04T00:44:47;100004.41;;;12.83;47.18
66430;BME280;53242;51.694;10.006;2023-06-04T00:47:11;99997.84;;;12.79;47.80
66430;BME280;53242;51.694;10.006;2023-06-04T00:49:34;100005.94;;;12.71;47.52
66430;BME280;53242;51.694;10.006;2023-06-04T00:51:57;99996.97;;;12.65;47.70
66430;BME280;53242;51.694;10.006;2023-06-04T00:54:19;99999.97;;;12.56;47.62
66430;BME280;53242;51.694;10.006;2023-06-04T00:56:42;99996.19;;;12.37;48.25
66430;BME280;53242;51.694;10.006;2023-06-04T00:59:07;99999.44;;;12.39;48.31
66430;BME280;53242;51.694;10.006;2023-06-04T01:01:45;99998.28;;;12.48;48.88
66430;BME280;53242;51.694;10.006;2023-06-04T01:04:20;99997.16;;;12.29;48.44
66430;BME280;53242;51.694;10.006;2023-06-04T01:06:50;100002.75;;;12.12;48.74
66430;BME280;53242;51.694;10.006;2023-06-04T01:09:13;100009.00;;;12.33;48.34
66430;BME280;53242;51.694;10.006;2023-06-04T01:11:39;100003.66;;;12.26;48.42
66430;BME280;53242;51.694;10.006;2023-06-04T01:14:03;100003.22;;;12.23;48.27
66430;BME280;53242;51.694;10.006;2023-06-04T01:16:27;100006.06;;;12.21;48.23
66430;BME280;53242;51.694;10.006;2023-06-04T01:18:51;100005.63;;;12.17;48.29
66430;BME280;53242;51.694;10.006;2023-06-04T01:21:14;100002.06;;;12.04;48.80
66430;BME280;53242;51.694;10.006;2023-06-04T01:23:46;100000.81;;;11.99;49.90
66430;BME280;53242;51.694;10.006;2023-06-04T01:26:12;100007.63;;;12.15;48.74
66430;BME280;53242;51.694;10.006;2023-06-04T01:28:34;100006.91;;;12.00;48.98
66430;BME280;53242;51.694;10.006;2023-06-04T01:30:57;100003.94;;;12.10;49.30
66430;BME280;53242;51.694;10.006;2023-06-04T01:33:23;100002.09;;;12.10;49.20
66430;BME280;53242;51.694;10.006;2023-06-04T01:35:45;100001.28;;;12.10;48.95
66430;BME280;53242;51.694;10.006;2023-06-04T01:38:08;100002.69;;;11.84;49.61
66430;BME280;53242;51.694;10.006;2023-06-04T01:40:31;100006.53;;;11.81;49.72
66430;BME280;53242;51.694;10.006;2023-06-04T01:42:53;99998.59;;;11.81;49.56
66430;BME280;53242;51.694;10.006;2023-06-04T01:45:16;99999.69;;;11.94;49.03
66430;BME280;53242;51.694;10.006;2023-06-04T01:47:38;99997.63;;;11.89;49.14
66430;BME280;53242;51.694;10.006;2023-06-04T01:50:02;100005.63;;;11.74;49.67
66430;BME280;53242;51.694;10.006;2023-06-04T01:52:24;100005.78;;;11.88;49.93
66430;BME280;53242;51.694;10.006;2023-06-04T01:54:47;100004.38;;;11.92;49.58
66430;BME280;53242;51.694;10.006;2023-06-04T01:57:14;100011.47;;;11.91;49.89
66430;BME280;53242;51.694;10.006;2023-06-04T01:59:36;100001.94;;;11.90;49.84
66430;BME280;53242;51.694;10.006;2023-06-04T02:01:59;100010.03;;;11.89;49.96
66430;BME280;53242;51.694;10.006;2023-06-04T02:04:24;100006.41;;;11.46;51.26
66430;BME280;53242;51.694;10.006;2023-06-04T02:06:47;100011.09;;;11.51;51.33
66430;BME280;53242;51.694;10.006;2023-06-04T02:09:10;100009.47;;;11.50;51.24
66430;BME280;53242;51.694;10.006;2023-06-04T02:11:33;100002.97;;;11.52;51.10
66430;BME280;53242;51.694;10.006;2023-06-04T02:13:55;100005.06;;;11.35;51.92
66430;BME280;53242;51.694;10.006;2023-06-04T02:16:18;100004.38;;;11.48;50.95
66430;BME280;53242;51.694;10.006;2023-06-04T02:18:40;100003.81;;;11.53;51.03
66430;BME280;53242;51.694;10.006;2023-06-04T02:21:03;100005.13;;;11.42;51.38
66430;BME280;53242;51.694;10.006;2023-06-04T02:23:25;100012.09;;;11.50;51.27
66430;BME280;53242;51.694;10.006;2023-06-04T02:25:50;100006.50;;;11.38;52.94
66430;BME280;53242;51.694;10.006;2023-06-04T02:28:12;100002.88;;;11.24;52.19
66430;BME280;53242;51.694;10.006;2023-06-04T02:30:35;100013.66;;;11.23;52.16
66430;BME280;53242;51.694;10.006;2023-06-04T02:32:57;100013.13;;;11.12;52.18
66430;BME280;53242;51.694;10.006;2023-06-04T02:35:23;100003.81;;;11.16;52.39
66430;BME280;53242;51.694;10.006;2023-06-04T02:37:46;100012.13;;;11.13;52.78
66430;BME280;53242;51.694;10.006;2023-06-04T02:40:09;100010.59;;;11.04;53.13
66430;BME280;53242;51.694;10.006;2023-06-04T02:42:32;100011.19;;;11.21;52.66
66430;BME280;53242;51.694;10.006;2023-06-04T02:44:54;100016.47;;;11.21;53.16
66430;BME280;53242;51.694;10.006;2023-06-04T02:47:16;100022.44;;;11.08;54.20
66430;BME280;53242;51.694;10.006;2023-06-04T02:49:41;100015.97;;;11.11;53.95
66430;BME280;53242;51.694;10.006;2023-06-04T02:52:03;100011.88;;;10.93;54.29
66430;BME280;53242;51.694;10.006;2023-06-04T02:54:26;100020.53;;;10.87;55.62
66430;BME280;53242;51.694;10.006;2023-06-04T02:56:48;100020.28;;;10.67;55.28
66430;BME280;53242;51.694;10.006;2023-06-04T02:59:11;100011.34;;;10.68;55.06
66430;BME280;53242;51.694;10.006;2023-06-04T03:01:33;100011.28;;;10.61;54.53
66430;BME280;53242;51.694;10.006;2023-06-04T03:03:56;100013.91;;;10.61;54.68
66430;BME280;53242;51.694;10.006;2023-06-04T03:06:20;100012.63;;;10.72;54.14
66430;BME280;53242;51.694;10.006;2023-06-04T03:08:43;100010.44;;;10.61;54.26
66430;BME280;53242;51.694;10.006;2023-06-04T03:11:05;100008.91;;;10.66;54.23
66430;BME280;53242;51.694;10.006;2023-06-04T03:13:27;100010.34;;;10.69;54.20
66430;BME280;53242;51.694;10.006;2023-06-04T03:15:50;100008.06;;;10.66;53.79
66430;BME280;53242;51.694;10.006;2023-06-04T03:18:14;100015.38;;;10.64;53.87
66430;BME280;53242;51.694;10.006;2023-06-04T03:20:36;100010.16;;;10.85;53.65
66430;BME280;53242;51.694;10.006;2023-06-04T03:23:00;100017.34;;;10.92;53.33
66430;BME280;53242;51.694;10.006;2023-06-04T03:25:22;100025.91;;;10.94;53.23
66430;BME280;53242;51.694;10.006;2023-06-04T03:27:45;100019.53;;;10.58;54.08
66430;BME280;53242;51.694;10.006;2023-06-04T03:30:08;100022.34;;;10.57;54.19
66430;BME280;53242;51.694;10.006;2023-06-04T03:32:39;100024.97;;;10.42;54.76
66430;BME280;53242;51.694;10.006;2023-06-04T03:35:01;100020.47;;;10.65;54.42
66430;BME280;53242;51.694;10.006;2023-06-04T03:37:25;100030.19;;;10.65;53.95
66430;BME280;53242;51.694;10.006;2023-06-04T03:39:48;100026.53;;;10.66;53.70
66430;BME280;53242;51.694;10.006;2023-06-04T03:42:13;100027.00;;;10.69;53.77
66430;BME280;53242;51.694;10.006;2023-06-04T03:44:35;100030.63;;;10.68;54.24
66430;BME280;53242;51.694;10.006;2023-06-04T03:46:59;100033.47;;;10.82;53.97
66430;BME280;53242;51.694;10.006;2023-06-04T03:49:22;100029.56;;;10.63;54.42
66430;BME280;53242;51.694;10.006;2023-06-04T03:51:46;100025.00;;;10.72;54.00
66430;BME280;53242;51.694;10.006;2023-06-04T03:54:08;100025.16;;;10.70;53.82
66430;BME280;53242;51.694;10.006;2023-06-04T03:56:32;100026.34;;;10.67;53.85
66430;BME280;53242;51.694;10.006;2023-06-04T03:58:55;100021.00;;;10.76;53.83
66430;BME280;53242;51.694;10.006;2023-06-04T04:01:18;100019.44;;;10.81;53.58
66430;BME280;53242;51.694;10.006;2023-06-04T04:03:41;100031.28;;;10.85;53.41
66430;BME280;53242;51.694;10.006;2023-06-04T04:06:05;100031.38;;;10.77;53.35
66430;BME280;53242;51.694;10.006;2023-06-04T04:08:28;100030.88;;;11.03;53.49
66430;BME280;53242;51.694;10.006;2023-06-04T04:10:53;100026.91;;;10.93;53.93
66430;BME280;53242;51.694;10.006;2023-06-04T04:13:16;100026.09;;;10.92;54.44
66430;BME280;53242;51.694;10.006;2023-06-04T04:15:38;100021.50;;;11.01;54.34
66430;BME280;53242;51.694;10.006;2023-06-04T04:18:01;100033.91;;;11.15;54.08
66430;BME280;53242;51.694;10.006;2023-06-04T04:20:24;100033.56;;;10.89;55.43
66430;BME280;53242;51.694;10.006;2023-06-04T04:22:53;100037.47;;;11.08;54.61
66430;BME280;53242;51.694;10.006;2023-06-04T04:25:16;100032.72;;;10.88;55.75
66430;BME280;53242;51.694;10.006;2023-06-04T04:27:39;100029.72;;;10.76;56.06
66430;BME280;53242;51.694;10.006;2023-06-04T04:30:06;100035.38;;;10.73;56.51
66430;BME280;53242;51.694;10.006;2023-06-04T04:32:29;100032.56;;;10.90;56.08
66430;BME280;53242;51.694;10.006;2023-06-04T04:34:53;100031.91;;;10.88;58.10
66430;BME280;53242;51.694;10.006;2023-06-04T04:37:20;100031.72;;;11.04;56.12
66430;BME280;53242;51.694;10.006;2023-06-04T04:39:48;100034.44;;;11.11;56.31
66430;BME280;53242;51.694;10.006;2023-06-04T04:42:14;100042.09;;;11.21;55.77
66430;BME280;53242;51.694;10.006;2023-06-04T04:44:36;100044.16;;;11.25;55.78
66430;BME280;53242;51.694;10.006;2023-06-04T04:46:59;100040.84;;;11.38;55.51
66430;BME280;53242;51.694;10.006;2023-06-04T04:49:22;100043.34;;;11.98;53.95
66430;BME280;53242;51.694;10.006;2023-06-04T04:51:44;100044.59;;;12.59;52.28
66430;BME280;53242;51.694;10.006;2023-06-04T04:54:06;100043.25;;;13.11;51.12
66430;BME280;53242;51.694;10.006;2023-06-04T04:56:33;100039.13;;;13.51;50.47
66430;BME280;53242;51.694;10.006;2023-06-04T04:58:56;100041.66;;;13.99;49.48
66430;BME280;53242;51.694;10.006;2023-06-04T05:01:19;100042.88;;;14.03;49.57
66430;BME280;53242;51.694;10.006;2023-06-04T05:03:42;100045.13;;;14.00;49.68
66430;BME280;53242;51.694;10.006;2023-06-04T05:06:06;100035.94;;;14.29;49.15
66430;BME280;53242;51.694;10.006;2023-06-04T05:08:29;100041.25;;;14.22;49.25
66430;BME280;53242;51.694;10.006;2023-06-04T05:10:51;100041.59;;;14.53;48.98
66430;BME280;53242;51.694;10.006;2023-06-04T05:13:14;100041.84;;;14.65;48.66
66430;BME280;53242;51.694;10.006;2023-06-04T05:15:47;100042.78;;;15.42;47.15
66430;BME280;53242;51.694;10.006;2023-06-04T05:18:13;100045.88;;;15.39;47.21
66430;BME280;53242;51.694;10.006;2023-06-04T05:20:38;100047.00;;;15.57;46.62
66430;BME280;53242;51.694;10.006;2023-06-04T05:23:03;100046.94;;;15.70;46.56
66430;BME280;53242;51.694;10.006;2023-06-04T05:25:26;100048.03;;;15.94;45.80
66430;BME280;53242;51.694;10.006;2023-06-04T05:27:51;100050.13;;;15.86;46.00
66430;BME280;53242;51.694;10.006;2023-06-04T05:30:15;100052.53;;;15.55;46.56
66430;BME280;53242;51.694;10.006;2023-06-04T05:32:38;100049.81;;;15.62;46.85
66430;BME280;53242;51.694;10.006;2023-06-04T05:35:06;100054.84;;;15.77;46.14
66430;BME280;53242;51.694;10.006;2023-06-04T05:37:30;100056.22;;;16.18;44.69
66430;BME280;53242;51.694;10.006;2023-06-04T05:39:55;100056.25;;;16.37;44.68
66430;BME280;53242;51.694;10.006;2023-06-04T05:42:18;100058.25;;;16.23;45.10
66430;BME280;53242;51.694;10.006;2023-06-04T05:44:41;100056.94;;;16.07;45.48
66430;BME280;53242;51.694;10.006;2023-06-04T05:47:06;100054.31;;;16.00;45.20
66430;BME280;53242;51.694;10.006;2023-06-04T05:49:29;100057.34;;;16.29;44.79
66430;BME280;53242;51.694;10.006;2023-06-04T05:51:54;100056.66;;;15.90;44.69
66430;BME280;53242;51.694;10.006;2023-06-04T05:54:17;100062.00;;;15.76;44.42
66430;BME280;53242;51.694;10.006;2023-06-04T05:56:40;100054.97;;;15.57;44.80
66430;BME280;53242;51.694;10.006;2023-06-04T05:59:03;100054.50;;;16.31;43.57
66430;BME280;53242;51.694;10.006;2023-06-04T06:01:25;100058.59;;;16.26;43.48
66430;BME280;53242;51.694;10.006;2023-06-04T06:03:48;100062.41;;;15.87;42.71
66430;BME280;53242;51.694;10.006;2023-06-04T06:06:11;100058.81;;;15.22;43.80
66430;BME280;53242;51.694;10.006;2023-06-04T06:08:33;100064.88;;;15.82;42.75
66430;BME280;53242;51.694;10.006;2023-06-04T06:10:56;100067.97;;;16.10;42.59
66430;BME280;53242;51.694;10.006;2023-06-04T06:13:18;100073.28;;;15.78;43.68
66430;BME280;53242;51.694;10.006;2023-06-04T06:15:41;100073.47;;;16.16;43.42
66430;BME280;53242;51.694;10.006;2023-06-04T06:18:04;100068.75;;;16.18;43.38
66430;BME280;53242;51.694;10.006;2023-06-04T06:20:27;100070.13;;;16.46;42.55
66430;BME280;53242;51.694;10.006;2023-06-04T06:22:49;100075.13;;;16.60;42.54
66430;BME280;53242;51.694;10.006;2023-06-04T06:25:14;100068.53;;;16.63;42.57
66430;BME280;53242;51.694;10.006;2023-06-04T06:27:42;100082.81;;;16.69;42.66
66430;BME280;53242;51.694;10.006;2023-06-04T06:30:07;100075.66;;;16.69;42.91
66430;BME280;53242;51.694;10.006;2023-06-04T06:32:30;100082.69;;;16.82;43.05
66430;BME280;53242;51.694;10.006;2023-06-04T06:34:53;100080.16;;;16.94;42.80
66430;BME280;53242;51.694;10.006;2023-06-04T06:37:15;100082.06;;;17.05;42.49
66430;BME280;53242;51.694;10.006;2023-06-04T06:39:37;100081.78;;;16.95;42.72
66430;BME280;53242;51.694;10.006;2023-06-04T06:42:00;100087.97;;;17.07;42.23
66430;BME280;53242;51.694;10.006;2023-06-04T06:44:28;100087.69;;;17.16;42.60
66430;BME280;53242;51.694;10.006;2023-06-04T06:46:51;100086.88;;;17.15;42.58
66430;BME280;53242;51.694;10.006;2023-06-04T06:49:13;100084.22;;;16.97;43.11
66430;BME280;53242;51.694;10.006;2023-06-04T06:51:36;100086.88;;;16.53;44.20
66430;BME280;53242;51.694;10.006;2023-06-04T06:53:58;100089.75;;;17.14;43.68
66430;BME280;53242;51.694;10.006;2023-06-04T06:56:20;100084.28;;;17.08;43.85
66430;BME280;53242;51.694;10.006;2023-06-04T06:58:43;100092.34;;;17.20;43.58
66430;BME280;53242;51.694;10.006;2023-06-04T07:01:06;100092.38;;;17.02;43.25
66430;BME280;53242;51.694;10.006;2023-06-04T07:03:28;100096.56;;;17.28;43.14
66430;BME280;53242;51.694;10.006;2023-06-04T07:05:50;100097.69;;;17.39;42.61
66430;BME280;53242;51.694;10.006;2023-06-04T07:08:13;100094.16;;;17.57;42.58
66430;BME280;53242;51.694;10.006;2023-06-04T07:10:35;100095.88;;;17.82;42.17
66430;BME280;53242;51.694;10.006;2023-06-04T07:12:58;100097.41;;;17.29;43.13
66430;BME280;53242;51.694;10.006;2023-06-04T07:15:20;100100.25;;;17.76;42.78
66430;BME280;53242;51.694;10.006;2023-06-04T07:17:43;100097.00;;;17.74;42.47
66430;BME280;53242;51.694;10.006;2023-06-04T07:20:06;100104.25;;;17.85;42.54
66430;BME280;53242;51.694;10.006;2023-06-04T07:22:29;100103.41;;;17.85;42.76
66430;BME280;53242;51.694;10.006;2023-06-04T07:24:52;100108.03;;;18.08;42.40
66430;BME280;53242;51.694;10.006;2023-06-04T07:27:15;100105.88;;;18.29;41.79
66430;BME280;53242;51.694;10.006;2023-06-04T07:29:37;100111.16;;;17.74;42.14
66430;BME280;53242;51.694;10.006;2023-06-04T07:32:00;100107.72;;;17.86;41.75
66430;BME280;53242;51.694;10.006;2023-06-04T07:34:22;100107.91;;;18.03;42.18
66430;BME280;53242;51.694;10.006;2023-06-04T07:36:44;100105.66;;;17.88;42.72
66430;BME280;53242;51.694;10.006;2023-06-04T07:39:07;100105.34;;;17.96;42.76
66430;BME280;53242;51.694;10.006;2023-06-04T07:41:29;100103.31;;;18.34;42.33
66430;BME280;53242;51.694;10.006;2023-06-04T07:43:52;100105.19;;;18.33;42.56
66430;BME280;53242;51.694;10.006;2023-06-04T07:46:14;100098.13;;;18.51;42.43
66430;BME280;53242;51.694;10.006;2023-06-04T07:48:40;100102.63;;;18.86;42.19
66430;BME280;53242;51.694;10.006;2023-06-04T07:51:03;100101.47;;;18.82;42.03
66430;BME280;53242;51.694;10.006;2023-06-04T07:53:26;100106.94;;;18.87;41.81
66430;BME280;53242;51.694;10.006;2023-06-04T07:55:49;100099.63;;;18.94;41.16
66430;BME280;53242;51.694;10.006;2023-06-04T07:58:12;100103.69;;;18.85;41.86
66430;BME280;53242;51.694;10.006;2023-06-04T08:00:34;100103.31;;;18.81;41.40
66430;BME280;53242;51.694;10.006;2023-06-04T08:02:57;100101.94;;;18.90;40.93
66430;BME280;53242;51.694;10.006;2023-06-04T08:05:19;100103.19;;;18.88;40.63
66430;BME280;53242;51.694;10.006;2023-06-04T08:07:42;100094.59;;;19.10;40.29
66430;BME280;53242;51.694;10.006;2023-06-04T08:10:04;100092.16;;;19.08;39.20
66430;BME280;53242;51.694;10.006;2023-06-04T08:12:27;100097.34;;;19.27;39.02
66430;BME280;53242;51.694;10.006;2023-06-04T08:14:49;100095.69;;;19.37;38.70
66430;BME280;53242;51.694;10.006;2023-06-04T08:17:18;100090.91;;;19.39;38.79
66430;BME280;53242;51.694;10.006;2023-06-04T08:19:41;100097.75;;;19.47;38.86
66430;BME280;53242;51.694;10.006;2023-06-04T08:22:04;100094.28;;;19.64;38.35
66430;BME280;53242;51.694;10.006;2023-06-04T08:24:27;100096.16;;;19.92;38.06
66430;BME280;53242;51.694;10.006;2023-06-04T08:26:49;100097.25;;;19.79;37.44
66430;BME280;53242;51.694;10.006;2023-06-04T08:29:12;100101.22;;;20.40;36.41
66430;BME280;53242;51.694;10.006;2023-06-04T08:31:34;100100.72;;;20.43;36.15
66430;BME280;53242;51.694;10.006;2023-06-04T08:33:57;100097.16;;;20.54;35.60
66430;BME280;53242;51.694;10.006;2023-06-04T08:36:19;100096.13;;;20.21;34.78
66430;BME280;53242;51.694;10.006;2023-06-04T08:38:42;100093.25;;;20.45;34.84
66430;BME280;53242;51.694;10.006;2023-06-04T08:41:11;100092.47;;;20.44;34.56
66430;BME280;53242;51.694;10.006;2023-06-04T08:43:36;100092.84;;;20.53;33.98
66430;BME280;53242;51.694;10.006;2023-06-04T08:45:59;100098.78;;;20.72;33.68
66430;BME280;53242;51.694;10.006;2023-06-04T08:48:24;100092.75;;;20.65;33.88
66430;BME280;53242;51.694;10.006;2023-06-04T08:50:47;100092.75;;;20.48;32.27
66430;BME280;53242;51.694;10.006;2023-06-04T08:53:11;100088.28;;;20.70;32.91
66430;BME280;53242;51.694;10.006;2023-06-04T08:55:35;100094.38;;;20.83;32.21
66430;BME280;53242;51.694;10.006;2023-06-04T08:57:59;100089.09;;;20.88;31.92
66430;BME280;53242;51.694;10.006;2023-06-04T09:00:22;100087.38;;;20.82;31.56
66430;BME280;53242;51.694;10.006;2023-06-04T09:02:46;100091.38;;;20.79;31.04
66430;BME280;53242;51.694;10.006;2023-06-04T09:05:09;100088.09;;;21.16;30.76
66430;BME280;53242;51.694;10.006;2023-06-04T09:07:35;100084.63;;;20.77;29.89
66430;BME280;53242;51.694;10.006;2023-06-04T09:09:58;100085.63;;;20.93;30.30
66430;BME280;53242;51.694;10.006;2023-06-04T09:12:24;100085.72;;;21.20;29.55
66430;BME280;53242;51.694;10.006;2023-06-04T09:14:47;100097.25;;;21.43;29.69
66430;BME280;53242;51.694;10.006;2023-06-04T09:17:10;100094.84;;;21.19;30.51
66430;BME280;53242;51.694;10.006;2023-06-04T09:19:32;100092.00;;;20.86;30.74
66430;BME280;53242;51.694;10.006;2023-06-04T09:21:59;100097.94;;;21.33;30.71
66430;BME280;53242;51.694;10.006;2023-06-04T09:24:24;100097.38;;;21.09;30.05
66430;BME280;53242;51.694;10.006;2023-06-04T09:26:47;100100.75;;;21.21;30.44
66430;BME280;53242;51.694;10.006;2023-06-04T09:29:10;100098.28;;;21.42;30.60
66430;BME280;53242;51.694;10.006;2023-06-04T09:31:32;100099.19;;;21.03;30.27
66430;BME280;53242;51.694;10.006;2023-06-04T09:33:59;100104.13;;;21.33;30.38
66430;BME280;53242;51.694;10.006;2023-06-04T09:36:21;100101.09;;;21.52;30.21
66430;BME280;53242;51.694;10.006;2023-06-04T09:38:45;100095.91;;;21.67;30.37
66430;BME280;53242;51.694;10.006;2023-06-04T09:41:14;100093.31;;;21.78;30.66
66430;BME280;53242;51.694;10.006;2023-06-04T09:43:37;100093.13;;;21.57;30.41
66430;BME280;53242;51.694;10.006;2023-06-04T09:46:10;100096.06;;;21.83;29.70
66430;BME280;53242;51.694;10.006;2023-06-04T09:48:33;100087.66;;;21.74;30.49
66430;BME280;53242;51.694;10.006;2023-06-04T09:51:06;100086.78;;;21.68;30.10
66430;BME280;53242;51.694;10.006;2023-06-04T09:53:28;100086.44;;;21.87;30.11
66430;BME280;53242;51.694;10.006;2023-06-04T09:56:01;100092.47;;;21.72;29.73
66430;BME280;53242;51.694;10.006;2023-06-04T09:58:26;100081.47;;;21.74;30.31
66430;BME280;53242;51.694;10.006;2023-06-04T10:00:48;100086.97;;;21.89;29.98
66430;BME280;53242;51.694;10.006;2023-06-04T10:03:14;100081.34;;;22.23;30.75
66430;BME280;53242;51.694;10.006;2023-06-04T10:05:37;100077.34;;;21.93;30.60
66430;BME280;53242;51.694;10.006;2023-06-04T10:08:03;100074.47;;;22.00;30.46
66430;BME280;53242;51.694;10.006;2023-06-04T10:10:27;100077.66;;;21.97;30.72
66430;BME280;53242;51.694;10.006;2023-06-04T10:12:55;100074.88;;;21.87;31.09
66430;BME280;53242;51.694;10.006;2023-06-04T10:15:21;100073.53;;;21.89;30.98
66430;BME280;53242;51.694;10.006;2023-06-04T10:17:43;100080.50;;;22.17;30.73
66430;BME280;53242;51.694;10.006;2023-06-04T10:20:07;100083.66;;;22.09;30.23
66430;BME280;53242;51.694;10.006;2023-06-04T10:22:31;100075.69;;;22.20;29.82
66430;BME280;53242;51.694;10.006;2023-06-04T10:24:54;100071.94;;;21.61;29.59
66430;BME280;53242;51.694;10.006;2023-06-04T10:27:21;100079.63;;;22.07;29.89
66430;BME280;53242;51.694;10.006;2023-06-04T10:29:45;100060.47;;;21.98;29.64
66430;BME280;53242;51.694;10.006;2023-06-04T10:32:08;100077.19;;;22.05;29.96
66430;BME280;53242;51.694;10.006;2023-06-04T10:34:31;100072.38;;;22.12;30.10
66430;BME280;53242;51.694;10.006;2023-06-04T10:36:54;100075.13;;;21.85;30.42
66430;BME280;53242;51.694;10.006;2023-06-04T10:39:30;100070.63;;;21.96;30.60
66430;BME280;53242;51.694;10.006;2023-06-04T10:42:01;100072.31;;;22.02;30.71
66430;BME280;53242;51.694;10.006;2023-06-04T10:44:24;100075.50;;;22.31;30.56
66430;BME280;53242;51.694;10.006;2023-06-04T10:46:47;100067.03;;;22.50;30.26
66430;BME280;53242;51.694;10.006;2023-06-04T10:49:10;100069.13;;;22.38;30.32
66430;BME280;53242;51.694;10.006;2023-06-04T10:51:37;100080.34;;;22.34;30.41
66430;BME280;53242;51.694;10.006;2023-06-04T10:54:01;100071.19;;;22.30;30.23
66430;BME280;53242;51.694;10.006;2023-06-04T10:56:27;100072.75;;;22.64;29.81
66430;BME280;53242;51.694;10.006;2023-06-04T10:58:50;100073.97;;;22.41;29.86
66430;BME280;53242;51.694;10.006;2023-06-04T11:01:28;100070.03;;;22.59;29.54
66430;BME280;53242;51.694;10.006;2023-06-04T11:03:51;100071.81;;;22.86;29.54
66430;BME280;53242;51.694;10.006;2023-06-04T11:06:15;100070.34;;;22.62;29.34
66430;BME280;53242;51.694;10.006;2023-06-04T11:08:39;100066.28;;;22.60;28.87
66430;BME280;53242;51.694;10.006;2023-06-04T11:11:10;100067.78;;;22.40;28.46
66430;BME280;53242;51.694;10.006;2023-06-04T11:13:33;100057.97;;;22.24;29.54
66430;BME280;53242;51.694;10.006;2023-06-04T11:15:55;100062.81;;;22.64;28.65
66430;BME280;53242;51.694;10.006;2023-06-04T11:18:20;100058.91;;;22.88;28.78
66430;BME280;53242;51.694;10.006;2023-06-04T11:20:44;100061.09;;;23.01;27.80
66430;BME280;53242;51.694;10.006;2023-06-04T11:23:07;100053.84;;;23.12;29.71
66430;BME280;53242;51.694;10.006;2023-06-04T11:25:30;100048.75;;;23.10;29.16
66430;BME280;53242;51.694;10.006;2023-06-04T11:27:53;100045.75;;;23.07;29.19
66430;BME280;53242;51.694;10.006;2023-06-04T11:30:16;100048.41;;;22.91;29.05
66430;BME280;53242;51.694;10.006;2023-06-04T11:32:38;100055.38;;;22.87;28.71
66430;BME280;53242;51.694;10.006;2023-06-04T11:35:04;100051.09;;;22.96;28.09
66430;BME280;53242;51.694;10.006;2023-06-04T11:37:30;100038.56;;;23.18;28.16
66430;BME280;53242;51.694;10.006;2023-06-04T11:39:54;100043.47;;;23.36;28.68
66430;BME280;53242;51.694;10.006;2023-06-04T11:42:17;100042.91;;;23.24;28.75
66430;BME280;53242;51.694;10.006;2023-06-04T11:44:39;100043.66;;;23.14;28.06
66430;BME280;53242;51.694;10.006;2023-06-04T11:47:08;100039.94;;;23.25;28.53
66430;BME280;53242;51.694;10.006;2023-06-04T11:49:30;100040.72;;;23.21;28.27
66430;BME280;53242;51.694;10.006;2023-06-04T11:51:53;100036.22;;;23.42;28.48
66430;BME280;53242;51.694;10.006;2023-06-04T11:54:16;100036.84;;;22.96;28.54
66430;BME280;53242;51.694;10.006;2023-06-04T11:56:38;100030.84;;;23.62;28.48
66430;BME280;53242;51.694;10.006;2023-06-04T11:59:01;100035.38;;;23.41;28.23
66430;BME280;53242;51.694;10.006;2023-06-04T12:01:23;100033.28;;;23.59;28.24
66430;BME280;53242;51.694;10.006;2023-06-04T12:03:50;100023.78;;;23.30;28.30
66430;BME280;53242;51.694;10.006;2023-06-04T12:06:13;100024.31;;;23.27;28.21
66430;BME280;53242;51.694;10.006;2023-06-04T12:08:51;100023.81;;;23.46;27.85
66430;BME280;53242;51.694;10.006;2023-06-04T12:11:33;100017.38;;;23.47;27.04
66430;BME280;53242;51.694;10.006;2023-06-04T12:13:57;100029.97;;;23.26;27.77
66430;BME280;53242;51.694;10.006;2023-06-04T12:16:20;100029.69;;;23.22;27.56
66430;BME280;53242;51.694;10.006;2023-06-04T12:18:42;100028.75;;;22.91;27.67
66430;BME280;53242;51.694;10.006;2023-06-04T12:21:16;100028.66;;;23.39;27.37
66430;BME280;53242;51.694;10.006;2023-06-04T12:23:39;100030.81;;;23.37;27.10